createdAt,value
2022-11-17T00:00:18.803Z,32.90
2022-11-17T00:02:47.306Z,38.63
2022-11-17T00:05:15.944Z,46.57
2022-11-17T00:07:45.326Z,34.37
2022-11-17T00:10:14.365Z,36.93
2022-11-17T00:13:00.394Z,33.07
2022-11-17T00:15:30.317Z,39.40
2022-11-17T00:18:16.524Z,35.77
2022-11-17T00:21:02.252Z,33.30
2022-11-17T00:23:47.279Z,40.93
2022-11-17T00:26:17.105Z,31.93
2022-11-17T00:28:45.581Z,39.30
2022-11-17T00:31:33.880Z,35.10
2022-11-17T00:34:06.384Z,33.87
2022-11-17T00:36:40.918Z,36.77
2022-11-17T00:39:10.193Z,32.33
2022-11-17T00:41:38.566Z,36.40
2022-11-17T00:44:07.847Z,40.20
2022-11-17T00:46:38.453Z,38.40
2022-11-17T00:49:07.477Z,35.10
2022-11-17T00:51:36.282Z,34.00
2022-11-17T00:54:05.853Z,31.50
2022-11-17T00:56:35.427Z,32.37
2022-11-17T00:59:04.166Z,35.50
2022-11-17T01:01:32.965Z,31.50
2022-11-17T01:04:07.181Z,31.90
2022-11-17T01:06:37.381Z,34.33
2022-11-17T01:09:07.736Z,29.80
2022-11-17T01:11:36.128Z,33.00
2022-11-17T01:14:04.815Z,35.90
2022-11-17T01:16:34.586Z,35.57
2022-11-17T01:19:05.083Z,29.40
2022-11-17T01:21:33.645Z,35.07
2022-11-17T01:24:02.878Z,37.43
2022-11-17T01:26:33.430Z,30.97
2022-11-17T01:29:02.368Z,42.13
2022-11-17T01:31:32.436Z,38.40
2022-11-17T01:34:01.333Z,33.90
2022-11-17T01:36:53.944Z,31.27
2022-11-17T01:39:23.184Z,27.77
2022-11-17T01:41:51.628Z,33.73
2022-11-17T01:44:56.848Z,37.47
2022-11-17T01:47:29.038Z,34.23
2022-11-17T01:50:00.446Z,33.83
2022-11-17T01:52:32.895Z,30.70
2022-11-17T01:55:01.946Z,34.07
2022-11-17T01:57:33.925Z,31.53
2022-11-17T02:00:05.824Z,33.40
2022-11-17T02:02:34.680Z,31.40
2022-11-17T02:05:07.539Z,29.43
2022-11-17T02:07:38.284Z,28.80
2022-11-17T02:10:07.754Z,31.10
2022-11-17T02:12:37.060Z,31.00
2022-11-17T02:15:06.645Z,29.40
2022-11-17T02:17:37.327Z,29.67
2022-11-17T02:20:08.998Z,29.70
2022-11-17T02:23:06.118Z,28.37
2022-11-17T02:25:47.815Z,21.70
2022-11-17T02:28:19.091Z,25.30
2022-11-17T02:30:58.362Z,26.43
2022-11-17T02:33:34.402Z,24.93
2022-11-17T02:36:06.830Z,27.70
2022-11-17T02:38:42.225Z,27.03
2022-11-17T02:41:14.027Z,28.60
2022-11-17T02:44:05.939Z,29.57
2022-11-17T02:46:42.449Z,28.97
2022-11-17T02:49:18.670Z,28.37
2022-11-17T02:51:47.971Z,29.90
2022-11-17T02:54:16.972Z,28.20
2022-11-17T02:56:45.676Z,26.90
2022-11-17T02:59:18.652Z,31.57
2022-11-17T03:02:15.412Z,33.90
2022-11-17T03:04:48.532Z,28.07
2022-11-17T03:07:29.378Z,26.93
2022-11-17T03:10:04.470Z,29.80
2022-11-17T03:12:37.485Z,28.97
2022-11-17T03:15:14.026Z,39.43
2022-11-17T03:17:48.454Z,29.20
2022-11-17T03:20:21.530Z,32.00
2022-11-17T03:22:52.764Z,30.30
2022-11-17T03:25:23.286Z,29.80
2022-11-17T03:27:56.281Z,29.00
2022-11-17T03:30:26.856Z,33.17
2022-11-17T03:32:58.258Z,33.00
2022-11-17T03:35:29.206Z,29.50
2022-11-17T03:38:02.058Z,30.90
2022-11-17T03:40:32.218Z,28.33
2022-11-17T03:43:03.138Z,30.33
2022-11-17T03:45:35.982Z,25.93
2022-11-17T03:48:09.173Z,30.00
2022-11-17T03:50:41.443Z,23.60
2022-11-17T03:53:10.224Z,21.53
2022-11-17T03:55:43.639Z,19.33
2022-11-17T03:58:16.681Z,20.27
2022-11-17T04:00:47.497Z,21.17
2022-11-17T04:03:17.156Z,23.17
2022-11-17T04:05:45.624Z,25.70
2022-11-17T04:08:13.901Z,20.60
2022-11-17T04:10:56.092Z,20.67
2022-11-17T04:13:51.431Z,20.40
2022-11-17T04:16:21.180Z,22.33
2022-11-17T04:18:50.726Z,21.83
2022-11-17T04:21:20.092Z,21.20
2022-11-17T04:23:48.428Z,23.93
2022-11-17T04:26:34.117Z,20.57
2022-11-17T04:29:02.591Z,24.10
2022-11-17T04:31:32.970Z,20.57
2022-11-17T04:34:03.167Z,21.90
2022-11-17T04:36:33.271Z,23.43
2022-11-17T04:39:01.639Z,23.30
2022-11-17T04:41:48.309Z,28.27
2022-11-17T04:44:18.572Z,28.83
2022-11-17T04:46:48.268Z,24.03
2022-11-17T04:49:18.293Z,26.17
2022-11-17T04:51:46.695Z,21.80
2022-11-17T04:54:17.529Z,27.23
2022-11-17T04:56:46.728Z,31.50
2022-11-17T04:59:15.670Z,33.70
2022-11-17T05:01:44.041Z,32.30
2022-11-17T05:04:15.046Z,34.47
2022-11-17T05:06:44.935Z,32.57
2022-11-17T05:09:15.806Z,35.80
2022-11-17T05:12:02.396Z,33.77
2022-11-17T05:14:31.455Z,28.90
2022-11-17T05:17:11.247Z,32.53
2022-11-17T05:19:44.316Z,33.93
2022-11-17T05:22:31.909Z,30.80
2022-11-17T05:25:00.266Z,27.33
2022-11-17T05:27:28.588Z,33.40
2022-11-17T05:29:57.060Z,31.57
2022-11-17T05:32:26.027Z,35.23
2022-11-17T05:34:56.023Z,34.93
2022-11-17T05:37:24.420Z,29.13
2022-11-17T05:39:52.747Z,35.03
2022-11-17T05:42:21.168Z,33.40
2022-11-17T05:44:49.675Z,35.60
2022-11-17T05:47:18.758Z,35.70
2022-11-17T05:49:47.185Z,44.97
2022-11-17T05:52:16.952Z,32.80
2022-11-17T05:54:45.309Z,37.30
2022-11-17T05:57:16.488Z,39.43
2022-11-17T05:59:48.015Z,36.13
2022-11-17T06:02:18.393Z,37.50
2022-11-17T06:04:47.474Z,37.10
2022-11-17T06:07:18.115Z,35.70
2022-11-17T06:09:47.807Z,35.03
2022-11-17T06:12:16.571Z,33.07
2022-11-17T06:14:45.018Z,38.33
2022-11-17T06:17:22.414Z,35.80
2022-11-17T06:19:53.471Z,30.43
2022-11-17T06:22:23.305Z,37.70
2022-11-17T06:24:51.767Z,35.87
2022-11-17T06:27:20.233Z,36.50
2022-11-17T06:29:49.048Z,34.63
2022-11-17T06:32:18.588Z,40.23
2022-11-17T06:34:53.604Z,34.70
2022-11-17T06:37:25.689Z,36.23
2022-11-17T06:39:54.074Z,31.47
2022-11-17T06:42:43.036Z,38.53
2022-11-17T06:45:12.383Z,39.47
2022-11-17T06:47:41.015Z,31.37
2022-11-17T06:50:10.452Z,35.00
2022-11-17T06:52:40.716Z,34.20
2022-11-17T06:55:10.055Z,32.40
2022-11-17T06:57:39.235Z,34.80
2022-11-17T07:00:09.009Z,30.70
2022-11-17T07:02:37.825Z,32.60
2022-11-17T07:05:06.849Z,33.17
2022-11-17T07:07:35.404Z,29.53
2022-11-17T07:10:05.549Z,31.77
2022-11-17T07:12:34.754Z,32.80
2022-11-17T07:15:03.031Z,28.37
2022-11-17T07:17:31.789Z,30.63
2022-11-17T07:20:00.074Z,28.90
2022-11-17T07:22:28.337Z,26.40
2022-11-17T07:24:56.634Z,28.10
2022-11-17T07:27:26.304Z,29.07
2022-11-17T07:29:54.647Z,31.50
2022-11-17T07:32:22.946Z,27.60
2022-11-17T07:34:51.380Z,30.57
2022-11-17T07:37:19.943Z,28.70
2022-11-17T07:39:48.230Z,33.57
2022-11-17T07:42:16.531Z,27.20
2022-11-17T07:44:55.803Z,26.87
2022-11-17T07:47:24.084Z,26.90
2022-11-17T07:49:52.636Z,31.83
2022-11-17T07:52:20.897Z,26.57
2022-11-17T07:54:49.254Z,23.57
2022-11-17T07:57:17.488Z,24.60
2022-11-17T07:59:45.779Z,27.73
2022-11-17T08:02:15.563Z,21.83
2022-11-17T08:04:43.949Z,23.40
2022-11-17T08:07:12.527Z,23.87
2022-11-17T08:09:40.869Z,22.37
2022-11-17T08:12:09.319Z,23.77
2022-11-17T08:14:37.592Z,25.13
2022-11-17T08:17:06.005Z,29.23
2022-11-17T08:19:35.709Z,26.23
2022-11-17T08:22:03.942Z,26.83
2022-11-17T08:24:33.537Z,28.10
2022-11-17T08:27:02.124Z,20.63
2022-11-17T08:29:30.474Z,22.57
2022-11-17T08:32:00.912Z,22.47
2022-11-17T08:34:29.214Z,24.27
2022-11-17T08:36:58.942Z,19.80
2022-11-17T08:39:28.643Z,22.93
2022-11-17T08:41:56.896Z,24.47
2022-11-17T08:44:25.252Z,25.90
2022-11-17T08:46:53.591Z,24.80
2022-11-17T08:49:21.818Z,19.57
2022-11-17T08:51:50.622Z,17.13
2022-11-17T08:54:20.328Z,25.10
2022-11-17T08:56:48.729Z,23.87
2022-11-17T08:59:17.014Z,20.63
2022-11-17T09:01:45.494Z,22.53
2022-11-17T09:04:14.067Z,20.80
2022-11-17T09:06:42.378Z,23.00
2022-11-17T09:09:10.744Z,21.20
2022-11-17T09:11:40.434Z,21.00
2022-11-17T09:14:09.111Z,19.13
2022-11-17T09:16:37.836Z,19.90
2022-11-17T09:19:06.886Z,22.63
2022-11-17T09:21:35.216Z,22.70
2022-11-17T09:24:03.480Z,20.83
2022-11-17T09:26:31.807Z,22.37
2022-11-17T09:29:04.340Z,22.57
2022-11-17T09:31:33.030Z,23.20
2022-11-17T09:34:05.265Z,27.57
2022-11-17T09:36:35.033Z,25.50
2022-11-17T09:39:03.294Z,22.47
2022-11-17T09:41:35.529Z,25.67
2022-11-17T09:44:17.335Z,27.30
2022-11-17T09:46:56.266Z,20.93
2022-11-17T09:49:34.251Z,20.97
2022-11-17T09:52:07.174Z,22.37
2022-11-17T09:54:42.674Z,27.03
2022-11-17T09:57:21.292Z,22.07
2022-11-17T10:00:03.442Z,27.13
2022-11-17T10:02:33.711Z,26.47
2022-11-17T10:05:02.360Z,26.60
2022-11-17T10:07:32.196Z,27.43
2022-11-17T10:10:02.647Z,25.23
2022-11-17T10:12:36.278Z,27.93
2022-11-17T10:15:22.375Z,23.10
2022-11-17T10:17:51.599Z,26.70
2022-11-17T10:20:19.999Z,25.00
2022-11-17T10:22:49.130Z,23.60
2022-11-17T10:25:37.370Z,27.47
2022-11-17T10:28:07.830Z,29.37
2022-11-17T10:30:37.912Z,22.90
2022-11-17T10:33:06.695Z,25.47
2022-11-17T10:35:36.367Z,24.50
2022-11-17T10:38:07.687Z,26.10
2022-11-17T10:40:48.309Z,25.00
2022-11-17T10:43:24.815Z,28.13
2022-11-17T10:45:56.032Z,28.10
2022-11-17T10:48:28.202Z,28.73
2022-11-17T10:50:58.467Z,29.57
2022-11-17T10:53:31.226Z,31.13
2022-11-17T10:56:03.623Z,25.50
2022-11-17T10:58:34.266Z,26.60
2022-11-17T11:01:06.189Z,23.00
2022-11-17T11:03:36.207Z,23.53
2022-11-17T11:06:07.446Z,23.43
2022-11-17T11:08:48.755Z,24.40
2022-11-17T11:11:36.136Z,24.03
2022-11-17T11:14:13.230Z,21.30
2022-11-17T11:16:47.889Z,23.20
2022-11-17T11:19:18.515Z,24.87
2022-11-17T11:22:20.942Z,27.13
2022-11-17T11:24:53.396Z,22.57
2022-11-17T11:27:45.078Z,23.27
2022-11-17T11:30:15.267Z,20.90
2022-11-17T11:32:56.101Z,23.00
2022-11-17T11:35:40.076Z,22.30
2022-11-17T11:38:24.198Z,27.30
2022-11-17T11:41:04.881Z,22.33
2022-11-17T11:43:37.270Z,26.30
2022-11-17T11:46:11.788Z,22.50
2022-11-17T11:48:42.481Z,27.53
2022-11-17T11:51:14.862Z,22.67
2022-11-17T11:53:47.698Z,20.50
2022-11-17T11:56:19.203Z,22.67
2022-11-17T11:58:57.128Z,21.43
2022-11-17T12:01:25.905Z,19.83
2022-11-17T12:04:01.815Z,19.00
2022-11-17T12:06:43.035Z,20.53
2022-11-17T12:09:26.028Z,22.17
2022-11-17T12:12:01.555Z,18.77
2022-11-17T12:14:31.632Z,15.83
2022-11-17T12:17:12.362Z,19.83
2022-11-17T12:19:51.192Z,20.37
2022-11-17T12:22:39.154Z,16.50
2022-11-17T12:25:17.187Z,19.00
2022-11-17T12:27:47.205Z,19.97
2022-11-17T12:30:56.941Z,15.93
2022-11-17T12:33:25.375Z,18.13
2022-11-17T12:36:30.454Z,18.97
2022-11-17T12:39:00.085Z,16.70
2022-11-17T12:42:01.830Z,13.90
2022-11-17T12:44:50.906Z,19.53
2022-11-17T12:47:20.646Z,18.17
2022-11-17T12:50:00.989Z,18.27
2022-11-17T12:52:34.556Z,16.77
2022-11-17T12:55:07.507Z,16.67
2022-11-17T12:57:36.521Z,17.50
2022-11-17T13:00:10.046Z,14.57
2022-11-17T13:03:00.738Z,17.53
2022-11-17T13:05:30.333Z,15.17
2022-11-17T13:08:22.486Z,17.13
2022-11-17T13:10:51.685Z,14.50
2022-11-17T13:13:22.848Z,14.80
2022-11-17T13:15:52.259Z,15.00
2022-11-17T13:18:31.713Z,11.93
2022-11-17T13:21:00.728Z,15.10
2022-11-17T13:23:31.674Z,12.23
2022-11-17T13:26:10.780Z,12.33
2022-11-17T13:28:39.172Z,12.87
2022-11-17T13:31:08.198Z,15.87
2022-11-17T13:33:40.182Z,16.50
2022-11-17T13:36:17.294Z,17.83
2022-11-17T13:38:52.124Z,15.87
2022-11-17T13:41:21.513Z,14.50
2022-11-17T13:43:50.607Z,15.13
2022-11-17T13:46:19.147Z,17.83
2022-11-17T13:48:48.501Z,13.63
2022-11-17T13:51:19.113Z,14.83
2022-11-17T13:53:50.984Z,13.20
2022-11-17T13:56:24.501Z,14.20
2022-11-17T13:58:53.046Z,14.23
2022-11-17T14:01:25.585Z,14.00
2022-11-17T14:03:54.149Z,18.77
2022-11-17T14:06:22.390Z,14.70
2022-11-17T14:09:06.364Z,14.20
2022-11-17T14:11:34.649Z,12.10
2022-11-17T14:14:02.953Z,16.70
2022-11-17T14:16:36.372Z,14.60
2022-11-17T14:19:07.236Z,16.00
2022-11-17T14:21:35.527Z,14.60
2022-11-17T14:24:08.367Z,14.50
2022-11-17T14:26:42.193Z,14.00
2022-11-17T14:29:12.548Z,13.23
2022-11-17T14:31:40.886Z,13.60
2022-11-17T14:34:09.299Z,15.70
2022-11-17T14:36:38.571Z,16.60
2022-11-17T14:39:14.126Z,11.90
2022-11-17T14:41:42.962Z,14.03
2022-11-17T14:44:11.436Z,13.50
2022-11-17T14:46:39.930Z,15.87
2022-11-17T14:49:08.418Z,11.40
2022-11-17T14:51:37.022Z,13.90
2022-11-17T14:54:05.613Z,15.00
2022-11-17T14:56:35.967Z,17.53
2022-11-17T14:59:04.294Z,12.70
2022-11-17T15:01:38.442Z,12.93
2022-11-17T15:04:27.623Z,13.93
2022-11-17T15:06:57.164Z,16.33
2022-11-17T15:09:25.769Z,14.97
2022-11-17T15:11:55.474Z,11.20
2022-11-17T15:14:24.325Z,15.13
2022-11-17T15:16:52.654Z,15.50
2022-11-17T15:19:20.965Z,16.47
2022-11-17T15:21:49.207Z,15.40
2022-11-17T15:24:18.053Z,13.00
2022-11-17T15:26:46.403Z,13.43
2022-11-17T15:29:16.573Z,13.77
2022-11-17T15:31:45.068Z,15.00
2022-11-17T15:34:19.754Z,16.23
2022-11-17T15:36:48.869Z,14.87
2022-11-17T15:39:18.084Z,17.60
2022-11-17T15:41:47.092Z,16.03
2022-11-17T15:44:18.971Z,14.60
2022-11-17T15:46:48.090Z,15.70
2022-11-17T15:49:16.853Z,14.20
2022-11-17T15:51:45.419Z,13.40
2022-11-17T15:54:20.030Z,16.87
2022-11-17T15:56:49.069Z,15.10
2022-11-17T15:59:19.396Z,14.80
2022-11-17T16:01:47.953Z,18.50
2022-11-17T16:04:16.834Z,16.63
2022-11-17T16:06:46.860Z,18.83
2022-11-17T16:09:16.012Z,21.90
2022-11-17T16:11:45.106Z,16.60
2022-11-17T16:14:14.910Z,17.47
2022-11-17T16:16:46.849Z,20.90
2022-11-17T16:19:15.498Z,19.13
2022-11-17T16:21:44.654Z,18.40
2022-11-17T16:24:13.114Z,27.97
2022-11-17T16:26:41.398Z,21.07
2022-11-17T16:29:10.019Z,20.17
2022-11-17T16:31:38.730Z,16.97
2022-11-17T16:34:11.877Z,17.80
2022-11-17T16:36:41.853Z,23.50
2022-11-17T16:39:12.116Z,20.07
2022-11-17T16:41:42.030Z,19.53
2022-11-17T16:44:12.233Z,20.57
2022-11-17T16:46:42.861Z,23.30
2022-11-17T16:49:18.056Z,22.70
2022-11-17T16:51:49.052Z,22.00
2022-11-17T16:54:18.218Z,20.83
2022-11-17T16:56:47.010Z,23.07
2022-11-17T16:59:16.668Z,21.03
2022-11-17T17:01:46.151Z,21.07
2022-11-17T17:04:17.559Z,20.00
2022-11-17T17:06:46.702Z,23.27
2022-11-17T17:09:16.418Z,24.77
2022-11-17T17:11:46.825Z,25.23
2022-11-17T17:14:16.379Z,27.10
2022-11-17T17:16:45.332Z,25.17
2022-11-17T17:19:17.546Z,31.20
2022-11-17T17:21:46.842Z,23.60
2022-11-17T17:24:16.111Z,25.23
2022-11-17T17:26:45.121Z,22.73
2022-11-17T17:29:14.230Z,22.87
2022-11-17T17:31:45.093Z,22.60
2022-11-17T17:34:14.127Z,22.93
2022-11-17T17:36:44.314Z,31.97
2022-11-17T17:39:17.150Z,21.90
2022-11-17T17:41:46.902Z,22.97
2022-11-17T17:44:23.391Z,22.50
2022-11-17T17:46:52.838Z,26.20
2022-11-17T17:49:22.197Z,24.03
2022-11-17T17:51:53.153Z,24.83
2022-11-17T17:54:24.483Z,27.10
2022-11-17T17:56:53.961Z,27.53
2022-11-17T17:59:23.230Z,26.47
2022-11-17T18:01:53.462Z,34.90
2022-11-17T18:04:23.028Z,28.63
2022-11-17T18:06:56.163Z,29.20
2022-11-17T18:09:27.135Z,26.57
2022-11-17T18:11:56.787Z,28.67
2022-11-17T18:14:39.387Z,30.97
2022-11-17T18:17:10.315Z,29.47
2022-11-17T18:19:40.138Z,26.43
2022-11-17T18:22:13.794Z,25.10
2022-11-17T18:24:43.011Z,28.57
2022-11-17T18:27:12.371Z,28.87
2022-11-17T18:29:41.658Z,29.13
2022-11-17T18:32:11.300Z,30.43
2022-11-17T18:34:42.473Z,29.87
2022-11-17T18:37:16.959Z,26.40
2022-11-17T18:39:48.087Z,27.40
2022-11-17T18:42:18.833Z,28.73
2022-11-17T18:44:48.711Z,28.40
2022-11-17T18:47:21.247Z,30.60
2022-11-17T18:49:51.812Z,31.83
2022-11-17T18:52:30.100Z,28.97
2022-11-17T18:55:01.775Z,25.83
2022-11-17T18:57:32.124Z,28.07
2022-11-17T19:00:04.606Z,30.07
2022-11-17T19:02:34.017Z,29.40
2022-11-17T19:05:05.753Z,32.27
2022-11-17T19:07:37.178Z,28.00
2022-11-17T19:10:09.042Z,30.53
2022-11-17T19:12:39.998Z,33.50
2022-11-17T19:15:10.156Z,29.07
2022-11-17T19:17:47.330Z,31.23
2022-11-17T19:20:19.716Z,26.17
2022-11-17T19:22:52.865Z,27.07
2022-11-17T19:25:24.860Z,26.30
2022-11-17T19:27:54.940Z,25.77
2022-11-17T19:30:27.047Z,28.57
2022-11-17T19:32:58.944Z,37.40
2022-11-17T19:35:29.136Z,28.53
2022-11-17T19:38:00.526Z,31.63
2022-11-17T19:40:30.503Z,34.97
2022-11-17T19:43:02.862Z,28.77
2022-11-17T19:45:33.551Z,32.83
2022-11-17T19:48:04.019Z,30.00
2022-11-17T19:50:38.024Z,35.07
2022-11-17T19:53:08.455Z,27.30
2022-11-17T19:55:39.464Z,23.97
2022-11-17T19:58:09.518Z,34.30
2022-11-17T20:00:40.079Z,30.60
2022-11-17T20:03:11.728Z,29.80
2022-11-17T20:05:41.937Z,32.87
2022-11-17T20:08:13.325Z,31.17
2022-11-17T20:10:44.532Z,27.03
2022-11-17T20:13:14.714Z,31.90
2022-11-17T20:15:48.349Z,24.00
2022-11-17T20:18:18.319Z,29.50
2022-11-17T20:20:50.290Z,31.00
2022-11-17T20:23:21.277Z,25.60
2022-11-17T20:25:51.880Z,31.07
2022-11-17T20:28:21.930Z,23.97
2022-11-17T20:30:51.765Z,24.60
2022-11-17T20:33:21.985Z,27.00
2022-11-17T20:35:51.661Z,26.67
2022-11-17T20:38:24.364Z,29.13
2022-11-17T20:40:58.550Z,32.80
2022-11-17T20:43:28.787Z,35.63
2022-11-17T20:45:59.671Z,29.43
2022-11-17T20:48:32.066Z,36.17
2022-11-17T20:51:02.901Z,29.80
2022-11-17T20:53:34.600Z,31.90
2022-11-17T20:56:06.420Z,27.07
2022-11-17T20:58:36.563Z,30.87
2022-11-17T21:01:10.459Z,25.63
2022-11-17T21:03:40.481Z,27.77
2022-11-17T21:06:11.035Z,27.63
2022-11-17T21:08:43.744Z,26.63
2022-11-17T21:11:35.272Z,27.67
2022-11-17T21:14:05.090Z,30.17
2022-11-17T21:16:34.690Z,31.67
2022-11-17T21:19:03.452Z,38.10
2022-11-17T21:21:32.571Z,30.10
2022-11-17T21:24:02.354Z,29.53
2022-11-17T21:26:30.990Z,26.40
2022-11-17T21:29:06.007Z,26.63
2022-11-17T21:31:35.495Z,28.73
2022-11-17T21:34:06.200Z,26.73
2022-11-17T21:36:36.224Z,26.30
2022-11-17T21:39:06.211Z,29.13
2022-11-17T21:41:36.270Z,30.17
2022-11-17T21:44:05.053Z,25.43
2022-11-17T21:46:34.823Z,28.47
2022-11-17T21:49:03.369Z,33.20
2022-11-17T21:51:33.468Z,25.67
2022-11-17T21:54:03.397Z,24.50
2022-11-17T21:56:33.161Z,28.10
2022-11-17T21:59:02.683Z,25.00
2022-11-17T22:01:31.980Z,25.57
2022-11-17T22:04:00.357Z,30.10
2022-11-17T22:06:28.793Z,27.40
2022-11-17T22:08:57.773Z,27.17
2022-11-17T22:11:37.039Z,27.33
2022-11-17T22:14:09.672Z,29.60
2022-11-17T22:16:39.476Z,29.00
2022-11-17T22:19:08.414Z,25.37
2022-11-17T22:21:37.502Z,26.27
2022-11-17T22:24:07.089Z,25.73
2022-11-17T22:26:38.186Z,24.77
2022-11-17T22:29:09.144Z,24.97
2022-11-17T22:31:37.329Z,26.97
2022-11-17T22:34:05.893Z,23.73
2022-11-17T22:36:34.162Z,25.13
2022-11-17T22:39:02.571Z,24.67
2022-11-17T22:41:31.329Z,28.90
2022-11-17T22:44:00.498Z,26.07
2022-11-17T22:46:30.448Z,24.17
2022-11-17T22:48:58.931Z,26.70
2022-11-17T22:51:44.783Z,20.60
2022-11-17T22:54:13.204Z,25.97
2022-11-17T22:56:41.410Z,26.63
2022-11-17T22:59:09.769Z,25.00
2022-11-17T23:01:39.620Z,28.37
2022-11-17T23:04:07.955Z,25.13
2022-11-17T23:06:36.183Z,25.03
2022-11-17T23:09:04.476Z,23.07
2022-11-17T23:11:37.517Z,23.40
2022-11-17T23:14:06.533Z,28.13
2022-11-17T23:16:34.807Z,32.43
2022-11-17T23:19:04.774Z,27.90
2022-11-17T23:21:33.164Z,26.43
2022-11-17T23:24:01.369Z,27.80
2022-11-17T23:26:29.861Z,23.63
2022-11-17T23:28:58.134Z,26.57
2022-11-17T23:31:27.952Z,28.83
2022-11-17T23:33:56.302Z,27.90
2022-11-17T23:36:26.278Z,22.90
2022-11-17T23:38:57.647Z,26.97
2022-11-17T23:41:26.404Z,33.00
2022-11-17T23:43:55.531Z,24.80
2022-11-17T23:46:25.571Z,25.53
2022-11-17T23:48:54.226Z,26.07
2022-11-17T23:51:23.708Z,23.93
2022-11-17T23:53:53.552Z,27.30
2022-11-17T23:56:22.372Z,23.63
2022-11-17T23:58:50.849Z,34.27
